プーケット の空港の天気 - METARとTAF

プーケット国際空港 ( VTSP / HKT ) - タイ プーケット県
飛行場実況気象(Metar)
観測時間05/30 23:30 ICT (05/30 16:30 UTC)
風向・風速不定 1m/s
視程10km以上
天気現象
少しの雲 雲底高度 610m
気温26℃
湿度94%
気圧1012hPa
METARVTSP 301630Z VRB02KT 9999 FEW020 26/25 Q1012 NOSIG
過去の天気等 Google飛行場航空写真 Wunderground天気予報

過去48時間のMETAR

飛行場予報(TAF)
発表時間: 5/30 18:00 ICT (5/30 11:00 UTC)
予報対象時間: 30日19時 ICT ~ 1日1時 ICT
風向・風速静穏
視程10km以上
少しの雲 雲底高度 610m
全天の8割程度の雲 雲底高度 3050m
30日19時 ICT ~ 30日23時 ICT に一時的に
風向・風速西北西 5m/s 瞬間風速 13m/s
視程5000m
天気現象雷雨
少しの積乱雲 雲底高度 550m
全天の4割程度の雲 雲底高度 610m
全天の8割程度の雲 雲底高度 3050m
31日7時 ICT ~ 31日9時 ICT に徐々に
風向・風速東 3m/s
31日11時 ICT ~ 31日13時 ICT に徐々に
風向・風速西 3m/s
31日13時 ICT ~ 31日19時 ICT に一時的に
風向・風速西北西 5m/s 瞬間風速 13m/s
視程3000m
天気現象雷雨
少しの積乱雲 雲底高度 550m
全天の4割程度の雲 雲底高度 610m
全天の8割程度の雲 雲底高度 3050m
TAF VTSP 301100Z 3012/3118 00000KT 9999 FEW020 BKN100
TEMPO 3012/3016 29010G25KT 5000 TSRA FEW018CB SCT020 BKN100
BECMG 3100/3102 10006KT
BECMG 3104/3106 28006KT
TEMPO 3106/3112 29010G25KT 3000 TSRA FEW018CB SCT020 BKN100